sensor_id;sensor_type;location;lat;lon;timestamp;pressure;altitude;pressure_sealevel;temperature;humidity
39243;BME280;29823;47.404;8.566;2023-03-03T00:01:01;96609.84;;;-0.78;100.00
39243;BME280;29823;47.404;8.566;2023-03-03T00:03:29;96611.66;;;-0.79;100.00
39243;BME280;29823;47.404;8.566;2023-03-03T00:05:57;96602.31;;;-0.73;100.00
39243;BME280;29823;47.404;8.566;2023-03-03T00:08:25;96601.97;;;-0.78;100.00
39243;BME280;29823;47.404;8.566;2023-03-03T00:10:55;96604.59;;;-0.86;100.00
39243;BME280;29823;47.404;8.566;2023-03-03T00:13:24;96593.38;;;-0.96;100.00
39243;BME280;29823;47.404;8.566;2023-03-03T00:15:53;96590.81;;;-0.88;100.00
39243;BME280;29823;47.404;8.566;2023-03-03T00:18:29;96602.31;;;-0.81;100.00
39243;BME280;29823;47.404;8.566;2023-03-03T00:20:59;96606.06;;;-0.76;100.00
39243;BME280;29823;47.404;8.566;2023-03-03T00:23:29;96603.50;;;-0.68;100.00
39243;BME280;29823;47.404;8.566;2023-03-03T00:25:59;96604.63;;;-0.63;100.00
39243;BME280;29823;47.404;8.566;2023-03-03T00:28:28;96594.47;;;-0.65;100.00
39243;BME280;29823;47.404;8.566;2023-03-03T00:30:58;96599.09;;;-0.52;100.00
39243;BME280;29823;47.404;8.566;2023-03-03T00:33:30;96599.28;;;-0.45;100.00
39243;BME280;29823;47.404;8.566;2023-03-03T00:36:19;96588.28;;;-0.41;100.00
39243;BME280;29823;47.404;8.566;2023-03-03T00:38:49;96608.34;;;-0.23;100.00
39243;BME280;29823;47.404;8.566;2023-03-03T00:41:21;96596.03;;;-0.31;100.00
39243;BME280;29823;47.404;8.566;2023-03-03T00:43:50;96602.56;;;-0.27;100.00
39243;BME280;29823;47.404;8.566;2023-03-03T00:46:21;96599.13;;;-0.20;100.00
39243;BME280;29823;47.404;8.566;2023-03-03T00:48:50;96603.25;;;-0.09;100.00
39243;BME280;29823;47.404;8.566;2023-03-03T00:51:25;96600.47;;;0.00;100.00
39243;BME280;29823;47.404;8.566;2023-03-03T00:53:54;96601.94;;;0.11;100.00
39243;BME280;29823;47.404;8.566;2023-03-03T00:56:24;96602.09;;;0.17;100.00
39243;BME280;29823;47.404;8.566;2023-03-03T00:58:52;96601.94;;;0.11;100.00
39243;BME280;29823;47.404;8.566;2023-03-03T01:01:20;96591.44;;;0.11;100.00
39243;BME280;29823;47.404;8.566;2023-03-03T01:03:51;96600.47;;;0.24;100.00
39243;BME280;29823;47.404;8.566;2023-03-03T01:06:18;96597.50;;;0.27;100.00
39243;BME280;29823;47.404;8.566;2023-03-03T01:08:46;96598.81;;;0.31;100.00
39243;BME280;29823;47.404;8.566;2023-03-03T01:11:16;96599.94;;;0.37;100.00
39243;BME280;29823;47.404;8.566;2023-03-03T01:13:49;96596.47;;;0.52;100.00
39243;BME280;29823;47.404;8.566;2023-03-03T01:16:18;96590.06;;;0.55;100.00
39243;BME280;29823;47.404;8.566;2023-03-03T01:18:46;96587.25;;;0.56;100.00
39243;BME280;29823;47.404;8.566;2023-03-03T01:21:14;96579.50;;;0.63;100.00
39243;BME280;29823;47.404;8.566;2023-03-03T01:23:42;96586.72;;;0.69;100.00
39243;BME280;29823;47.404;8.566;2023-03-03T01:26:09;96580.97;;;0.65;100.00
39243;BME280;29823;47.404;8.566;2023-03-03T01:28:37;96577.22;;;0.52;100.00
39243;BME280;29823;47.404;8.566;2023-03-03T01:31:07;96586.94;;;0.43;100.00
39243;BME280;29823;47.404;8.566;2023-03-03T01:33:35;96590.56;;;0.42;100.00
39243;BME280;29823;47.404;8.566;2023-03-03T01:36:04;96598.13;;;0.53;100.00
39243;BME280;29823;47.404;8.566;2023-03-03T01:38:34;96588.53;;;0.68;100.00
39243;BME280;29823;47.404;8.566;2023-03-03T01:41:02;96592.44;;;0.80;100.00
39243;BME280;29823;47.404;8.566;2023-03-03T01:43:32;96583.72;;;0.80;100.00
39243;BME280;29823;47.404;8.566;2023-03-03T01:46:30;96584.81;;;0.93;100.00
39243;BME280;29823;47.404;8.566;2023-03-03T01:49:02;96591.41;;;0.97;100.00
39243;BME280;29823;47.404;8.566;2023-03-03T01:51:31;96584.16;;;0.99;100.00
39243;BME280;29823;47.404;8.566;2023-03-03T01:54:02;96580.56;;;0.92;100.00
39243;BME280;29823;47.404;8.566;2023-03-03T01:56:30;96577.31;;;0.82;100.00
39243;BME280;29823;47.404;8.566;2023-03-03T01:59:02;96582.34;;;1.00;100.00
39243;BME280;29823;47.404;8.566;2023-03-03T02:01:33;96576.94;;;0.93;100.00
39243;BME280;29823;47.404;8.566;2023-03-03T02:04:02;96573.34;;;0.94;100.00
39243;BME280;29823;47.404;8.566;2023-03-03T02:06:33;96578.88;;;0.99;100.00
39243;BME280;29823;47.404;8.566;2023-03-03T02:09:05;96575.34;;;0.84;100.00
39243;BME280;29823;47.404;8.566;2023-03-03T02:11:37;96578.63;;;0.86;100.00
39243;BME280;29823;47.404;8.566;2023-03-03T02:14:05;96580.41;;;0.94;100.00
39243;BME280;29823;47.404;8.566;2023-03-03T02:16:34;96578.28;;;0.89;100.00
39243;BME280;29823;47.404;8.566;2023-03-03T02:19:04;96579.84;;;1.06;100.00
39243;BME280;29823;47.404;8.566;2023-03-03T02:21:32;96581.19;;;1.02;100.00
39243;BME280;29823;47.404;8.566;2023-03-03T02:24:03;96588.59;;;0.99;100.00
39243;BME280;29823;47.404;8.566;2023-03-03T02:26:39;96569.72;;;0.87;100.00
39243;BME280;29823;47.404;8.566;2023-03-03T02:29:09;96582.88;;;0.95;100.00
39243;BME280;29823;47.404;8.566;2023-03-03T02:31:37;96575.28;;;0.92;100.00
39243;BME280;29823;47.404;8.566;2023-03-03T02:34:05;96574.13;;;1.03;100.00
39243;BME280;29823;47.404;8.566;2023-03-03T02:36:34;96565.38;;;1.10;100.00
39243;BME280;29823;47.404;8.566;2023-03-03T02:39:05;96582.06;;;1.25;100.00
39243;BME280;29823;47.404;8.566;2023-03-03T02:41:37;96586.94;;;1.36;100.00
39243;BME280;29823;47.404;8.566;2023-03-03T02:44:08;96587.47;;;1.32;100.00
39243;BME280;29823;47.404;8.566;2023-03-03T02:46:38;96582.97;;;1.40;100.00
39243;BME280;29823;47.404;8.566;2023-03-03T02:49:08;96581.34;;;1.31;100.00
39243;BME280;29823;47.404;8.566;2023-03-03T02:51:36;96575.44;;;1.37;100.00
39243;BME280;29823;47.404;8.566;2023-03-03T02:54:05;96576.41;;;1.36;100.00
39243;BME280;29823;47.404;8.566;2023-03-03T02:56:33;96574.75;;;1.35;100.00
39243;BME280;29823;47.404;8.566;2023-03-03T02:59:03;96574.44;;;1.38;100.00
39243;BME280;29823;47.404;8.566;2023-03-03T03:01:31;96578.09;;;1.29;100.00
39243;BME280;29823;47.404;8.566;2023-03-03T03:04:04;96580.72;;;1.29;100.00
39243;BME280;29823;47.404;8.566;2023-03-03T03:06:35;96586.00;;;1.29;100.00
39243;BME280;29823;47.404;8.566;2023-03-03T03:09:03;96575.00;;;1.26;100.00
39243;BME280;29823;47.404;8.566;2023-03-03T03:11:33;96582.81;;;1.34;100.00
39243;BME280;29823;47.404;8.566;2023-03-03T03:14:03;96582.03;;;1.33;100.00
39243;BME280;29823;47.404;8.566;2023-03-03T03:16:32;96582.66;;;1.35;100.00
39243;BME280;29823;47.404;8.566;2023-03-03T03:19:00;96576.38;;;1.44;100.00
39243;BME280;29823;47.404;8.566;2023-03-03T03:21:29;96575.06;;;1.40;100.00
39243;BME280;29823;47.404;8.566;2023-03-03T03:23:57;96577.22;;;1.37;100.00
39243;BME280;29823;47.404;8.566;2023-03-03T03:26:25;96576.00;;;1.47;100.00
39243;BME280;29823;47.404;8.566;2023-03-03T03:28:54;96574.13;;;1.33;100.00
39243;BME280;29823;47.404;8.566;2023-03-03T03:31:24;96575.94;;;1.33;100.00
39243;BME280;29823;47.404;8.566;2023-03-03T03:33:52;96573.25;;;1.41;100.00
39243;BME280;29823;47.404;8.566;2023-03-03T03:36:20;96574.03;;;1.49;100.00
39243;BME280;29823;47.404;8.566;2023-03-03T03:38:48;96574.06;;;1.41;100.00
39243;BME280;29823;47.404;8.566;2023-03-03T03:41:15;96555.69;;;1.33;100.00
39243;BME280;29823;47.404;8.566;2023-03-03T03:43:43;96568.06;;;1.55;100.00
39243;BME280;29823;47.404;8.566;2023-03-03T03:46:11;96562.06;;;1.39;100.00
39243;BME280;29823;47.404;8.566;2023-03-03T03:48:41;96565.53;;;1.39;100.00
39243;BME280;29823;47.404;8.566;2023-03-03T03:51:09;96549.81;;;1.23;100.00
39243;BME280;29823;47.404;8.566;2023-03-03T03:53:37;96572.09;;;1.43;100.00
39243;BME280;29823;47.404;8.566;2023-03-03T03:56:06;96565.75;;;1.52;100.00
39243;BME280;29823;47.404;8.566;2023-03-03T03:58:33;96557.16;;;1.58;100.00
39243;BME280;29823;47.404;8.566;2023-03-03T04:01:03;96556.53;;;1.56;100.00
39243;BME280;29823;47.404;8.566;2023-03-03T04:03:31;96556.84;;;1.53;100.00
39243;BME280;29823;47.404;8.566;2023-03-03T04:06:00;96563.09;;;1.60;100.00
39243;BME280;29823;47.404;8.566;2023-03-03T04:08:27;96558.63;;;1.61;100.00
39243;BME280;29823;47.404;8.566;2023-03-03T04:10:55;96562.94;;;1.62;100.00
39243;BME280;29823;47.404;8.566;2023-03-03T04:13:23;96558.88;;;1.51;100.00
39243;BME280;29823;47.404;8.566;2023-03-03T04:15:54;96562.66;;;1.49;100.00
39243;BME280;29823;47.404;8.566;2023-03-03T04:18:22;96558.88;;;1.51;100.00
39243;BME280;29823;47.404;8.566;2023-03-03T04:20:50;96552.50;;;1.46;100.00
39243;BME280;29823;47.404;8.566;2023-03-03T04:23:19;96563.81;;;1.54;100.00
39243;BME280;29823;47.404;8.566;2023-03-03T04:25:48;96566.72;;;1.59;100.00
39243;BME280;29823;47.404;8.566;2023-03-03T04:28:16;96573.56;;;1.68;100.00
39243;BME280;29823;47.404;8.566;2023-03-03T04:30:44;96572.00;;;1.59;100.00
39243;BME280;29823;47.404;8.566;2023-03-03T04:33:12;96574.66;;;1.51;100.00
39243;BME280;29823;47.404;8.566;2023-03-03T04:35:40;96573.16;;;1.57;100.00
39243;BME280;29823;47.404;8.566;2023-03-03T04:38:08;96570.69;;;1.55;100.00
39243;BME280;29823;47.404;8.566;2023-03-03T04:40:39;96569.28;;;1.67;100.00
39243;BME280;29823;47.404;8.566;2023-03-03T04:43:07;96584.41;;;1.73;100.00
39243;BME280;29823;47.404;8.566;2023-03-03T04:45:35;96579.50;;;1.70;100.00
39243;BME280;29823;47.404;8.566;2023-03-03T04:48:03;96566.97;;;1.72;100.00
39243;BME280;29823;47.404;8.566;2023-03-03T04:50:31;96576.00;;;1.78;100.00
39243;BME280;29823;47.404;8.566;2023-03-03T04:53:00;96587.59;;;1.91;100.00
39243;BME280;29823;47.404;8.566;2023-03-03T04:55:28;96586.13;;;1.89;100.00
39243;BME280;29823;47.404;8.566;2023-03-03T04:57:57;96572.69;;;1.76;100.00
39243;BME280;29823;47.404;8.566;2023-03-03T05:00:25;96572.69;;;1.76;100.00
39243;BME280;29823;47.404;8.566;2023-03-03T05:02:52;96577.50;;;1.72;100.00
39243;BME280;29823;47.404;8.566;2023-03-03T05:05:20;96587.00;;;1.81;100.00
39243;BME280;29823;47.404;8.566;2023-03-03T05:07:48;96584.38;;;1.81;100.00
39243;BME280;29823;47.404;8.566;2023-03-03T05:10:16;96580.91;;;1.81;100.00
39243;BME280;29823;47.404;8.566;2023-03-03T05:12:44;96577.78;;;1.77;100.00
39243;BME280;29823;47.404;8.566;2023-03-03T05:15:13;96586.69;;;1.76;100.00
39243;BME280;29823;47.404;8.566;2023-03-03T05:17:41;96577.84;;;1.69;100.00
39243;BME280;29823;47.404;8.566;2023-03-03T05:20:10;96584.78;;;1.70;100.00
39243;BME280;29823;47.404;8.566;2023-03-03T05:22:38;96588.50;;;1.76;100.00
39243;BME280;29823;47.404;8.566;2023-03-03T05:25:07;96586.81;;;1.83;100.00
39243;BME280;29823;47.404;8.566;2023-03-03T05:27:36;96583.00;;;1.85;100.00
39243;BME280;29823;47.404;8.566;2023-03-03T05:30:05;96590.50;;;1.96;100.00
39243;BME280;29823;47.404;8.566;2023-03-03T05:32:34;96580.19;;;1.87;100.00
39243;BME280;29823;47.404;8.566;2023-03-03T05:35:02;96579.72;;;1.83;100.00
39243;BME280;29823;47.404;8.566;2023-03-03T05:37:30;96588.75;;;1.89;100.00
39243;BME280;29823;47.404;8.566;2023-03-03T05:39:58;96586.63;;;1.84;100.00
39243;BME280;29823;47.404;8.566;2023-03-03T05:42:26;96591.28;;;1.82;100.00
39243;BME280;29823;47.404;8.566;2023-03-03T05:44:54;96617.56;;;1.90;100.00
39243;BME280;29823;47.404;8.566;2023-03-03T05:47:22;96607.31;;;1.95;100.00
39243;BME280;29823;47.404;8.566;2023-03-03T05:49:51;96595.84;;;1.88;100.00
39243;BME280;29823;47.404;8.566;2023-03-03T05:52:19;96595.22;;;1.86;100.00
39243;BME280;29823;47.404;8.566;2023-03-03T05:54:47;96602.91;;;1.88;100.00
39243;BME280;29823;47.404;8.566;2023-03-03T05:57:15;96605.09;;;1.84;100.00
39243;BME280;29823;47.404;8.566;2023-03-03T05:59:42;96601.41;;;1.93;100.00
39243;BME280;29823;47.404;8.566;2023-03-03T06:02:10;96603.75;;;1.88;100.00
39243;BME280;29823;47.404;8.566;2023-03-03T06:04:38;96598.19;;;1.83;100.00
39243;BME280;29823;47.404;8.566;2023-03-03T06:07:07;96606.03;;;1.91;100.00
39243;BME280;29823;47.404;8.566;2023-03-03T06:09:35;96606.72;;;1.85;100.00
39243;BME280;29823;47.404;8.566;2023-03-03T06:12:03;96611.41;;;1.98;100.00
39243;BME280;29823;47.404;8.566;2023-03-03T06:14:32;96613.25;;;1.97;100.00
39243;BME280;29823;47.404;8.566;2023-03-03T06:16:59;96618.53;;;1.97;100.00
39243;BME280;29823;47.404;8.566;2023-03-03T06:19:27;96618.81;;;2.02;100.00
39243;BME280;29823;47.404;8.566;2023-03-03T06:21:55;96624.00;;;2.10;100.00
39243;BME280;29823;47.404;8.566;2023-03-03T06:24:27;96634.69;;;2.17;100.00
39243;BME280;29823;47.404;8.566;2023-03-03T06:26:56;96627.66;;;2.32;100.00
39243;BME280;29823;47.404;8.566;2023-03-03T06:29:24;96633.59;;;2.26;100.00
39243;BME280;29823;47.404;8.566;2023-03-03T06:31:53;96643.69;;;2.22;100.00
39243;BME280;29823;47.404;8.566;2023-03-03T06:34:21;96643.22;;;2.19;100.00
39243;BME280;29823;47.404;8.566;2023-03-03T06:36:49;96640.00;;;2.31;100.00
39243;BME280;29823;47.404;8.566;2023-03-03T06:39:17;96643.94;;;2.35;100.00
39243;BME280;29823;47.404;8.566;2023-03-03T06:41:46;96648.03;;;2.38;100.00
39243;BME280;29823;47.404;8.566;2023-03-03T06:44:14;96645.56;;;2.36;100.00
39243;BME280;29823;47.404;8.566;2023-03-03T06:46:42;96657.41;;;2.40;100.00
39243;BME280;29823;47.404;8.566;2023-03-03T06:49:10;96650.38;;;2.33;100.00
39243;BME280;29823;47.404;8.566;2023-03-03T06:51:38;96644.50;;;2.45;100.00
39243;BME280;29823;47.404;8.566;2023-03-03T06:54:10;96653.69;;;2.49;100.00
39243;BME280;29823;47.404;8.566;2023-03-03T06:56:40;96663.72;;;2.54;100.00
39243;BME280;29823;47.404;8.566;2023-03-03T06:59:12;96662.91;;;2.53;100.00
39243;BME280;29823;47.404;8.566;2023-03-03T07:01:41;96654.22;;;2.67;100.00
39243;BME280;29823;47.404;8.566;2023-03-03T07:04:14;96665.16;;;2.93;100.00
39243;BME280;29823;47.404;8.566;2023-03-03T07:06:43;96667.28;;;3.12;100.00
39243;BME280;29823;47.404;8.566;2023-03-03T07:09:15;96675.19;;;3.12;100.00
39243;BME280;29823;47.404;8.566;2023-03-03T07:11:46;96674.75;;;3.09;100.00
39243;BME280;29823;47.404;8.566;2023-03-03T07:14:18;96677.22;;;3.25;100.00
39243;BME280;29823;47.404;8.566;2023-03-03T07:16:50;96677.41;;;3.23;100.00
39243;BME280;29823;47.404;8.566;2023-03-03T07:19:28;96676.56;;;3.23;100.00
39243;BME280;29823;47.404;8.566;2023-03-03T07:21:58;96684.88;;;3.34;100.00
39243;BME280;29823;47.404;8.566;2023-03-03T07:24:28;96676.47;;;3.31;100.00
39243;BME280;29823;47.404;8.566;2023-03-03T07:27:05;96678.56;;;3.50;100.00
39243;BME280;29823;47.404;8.566;2023-03-03T07:29:38;96680.97;;;3.45;100.00
39243;BME280;29823;47.404;8.566;2023-03-03T07:32:25;96678.22;;;3.38;100.00
39243;BME280;29823;47.404;8.566;2023-03-03T07:34:54;96685.31;;;3.38;100.00
39243;BME280;29823;47.404;8.566;2023-03-03T07:37:29;96690.78;;;3.36;100.00
39243;BME280;29823;47.404;8.566;2023-03-03T07:39:58;96690.22;;;3.55;100.00
39243;BME280;29823;47.404;8.566;2023-03-03T07:42:33;96695.06;;;3.66;100.00
39243;BME280;29823;47.404;8.566;2023-03-03T07:45:22;96699.31;;;3.82;100.00
39243;BME280;29823;47.404;8.566;2023-03-03T07:47:54;96688.28;;;3.78;100.00
39243;BME280;29823;47.404;8.566;2023-03-03T07:50:26;96697.69;;;3.66;100.00
39243;BME280;29823;47.404;8.566;2023-03-03T07:52:56;96701.06;;;3.60;100.00
39243;BME280;29823;47.404;8.566;2023-03-03T07:55:30;96706.81;;;3.64;100.00
39243;BME280;29823;47.404;8.566;2023-03-03T07:58:16;96695.97;;;3.44;100.00
39243;BME280;29823;47.404;8.566;2023-03-03T08:03:56;96703.00;;;3.52;100.00
39243;BME280;29823;47.404;8.566;2023-03-03T08:06:36;96703.91;;;3.59;100.00
39243;BME280;29823;47.404;8.566;2023-03-03T08:09:36;96715.03;;;3.54;100.00
39243;BME280;29823;47.404;8.566;2023-03-03T08:12:23;96708.44;;;3.65;100.00
39243;BME280;29823;47.404;8.566;2023-03-03T08:14:55;96699.78;;;3.56;100.00
39243;BME280;29823;47.404;8.566;2023-03-03T08:17:31;96707.63;;;3.79;100.00
39243;BME280;29823;47.404;8.566;2023-03-03T08:22:50;96709.25;;;3.80;100.00
39243;BME280;29823;47.404;8.566;2023-03-03T08:25:18;96709.72;;;3.69;100.00
39243;BME280;29823;47.404;8.566;2023-03-03T08:27:46;96705.97;;;3.63;100.00
39243;BME280;29823;47.404;8.566;2023-03-03T08:30:14;96709.88;;;3.96;100.00
39243;BME280;29823;47.404;8.566;2023-03-03T08:32:42;96708.03;;;3.97;100.00
39243;BME280;29823;47.404;8.566;2023-03-03T08:35:11;96705.31;;;4.05;100.00
39243;BME280;29823;47.404;8.566;2023-03-03T08:37:39;96705.06;;;3.85;100.00
39243;BME280;29823;47.404;8.566;2023-03-03T08:40:08;96709.06;;;3.96;100.00
39243;BME280;29823;47.404;8.566;2023-03-03T08:42:36;96704.72;;;4.09;100.00
39243;BME280;29823;47.404;8.566;2023-03-03T08:45:05;96700.19;;;4.03;100.00
39243;BME280;29823;47.404;8.566;2023-03-03T08:47:33;96706.38;;;4.10;100.00
39243;BME280;29823;47.404;8.566;2023-03-03T08:50:00;96705.50;;;4.24;100.00
39243;BME280;29823;47.404;8.566;2023-03-03T08:52:30;96710.03;;;4.09;100.00
39243;BME280;29823;47.404;8.566;2023-03-03T08:54:57;96711.44;;;3.91;100.00
39243;BME280;29823;47.404;8.566;2023-03-03T08:57:25;96710.81;;;3.74;100.00
39243;BME280;29823;47.404;8.566;2023-03-03T08:59:53;96717.44;;;3.99;100.00
39243;BME280;29823;47.404;8.566;2023-03-03T09:02:21;96719.28;;;3.84;100.00
39243;BME280;29823;47.404;8.566;2023-03-03T09:04:49;96716.00;;;3.82;100.00
39243;BME280;29823;47.404;8.566;2023-03-03T09:07:17;96726.22;;;3.85;100.00
39243;BME280;29823;47.404;8.566;2023-03-03T09:09:46;96729.94;;;3.91;100.00
39243;BME280;29823;47.404;8.566;2023-03-03T09:12:16;96732.56;;;4.05;100.00
39243;BME280;29823;47.404;8.566;2023-03-03T09:14:44;96738.78;;;3.83;100.00
39243;BME280;29823;47.404;8.566;2023-03-03T09:17:23;96729.19;;;3.97;100.00
39243;BME280;29823;47.404;8.566;2023-03-03T09:19:54;96730.84;;;3.98;100.00
39243;BME280;29823;47.404;8.566;2023-03-03T09:22:25;96727.56;;;3.96;100.00
39243;BME280;29823;47.404;8.566;2023-03-03T09:24:57;96729.81;;;4.13;100.00
39243;BME280;29823;47.404;8.566;2023-03-03T09:27:27;96736.38;;;4.03;100.00
39243;BME280;29823;47.404;8.566;2023-03-03T09:30:00;96734.25;;;3.77;100.00
39243;BME280;29823;47.404;8.566;2023-03-03T09:32:34;96732.31;;;3.86;100.00
39243;BME280;29823;47.404;8.566;2023-03-03T09:35:32;96736.53;;;4.30;100.00
39243;BME280;29823;47.404;8.566;2023-03-03T09:38:14;96733.56;;;4.40;100.00
39243;BME280;29823;47.404;8.566;2023-03-03T09:40:55;96717.22;;;4.15;100.00
39243;BME280;29823;47.404;8.566;2023-03-03T09:43:35;96732.69;;;4.33;100.00
39243;BME280;29823;47.404;8.566;2023-03-03T09:46:10;96734.56;;;4.39;100.00
39243;BME280;29823;47.404;8.566;2023-03-03T09:48:51;96732.72;;;4.04;100.00
39243;BME280;29823;47.404;8.566;2023-03-03T09:51:40;96745.69;;;4.13;100.00
39243;BME280;29823;47.404;8.566;2023-03-03T09:54:27;96734.75;;;4.37;100.00
39243;BME280;29823;47.404;8.566;2023-03-03T09:57:04;96739.47;;;4.77;100.00
39243;BME280;29823;47.404;8.566;2023-03-03T09:59:44;96732.00;;;4.45;100.00
39243;BME280;29823;47.404;8.566;2023-03-03T10:02:34;96733.91;;;4.93;100.00
39243;BME280;29823;47.404;8.566;2023-03-03T10:05:15;96725.50;;;5.17;100.00
39243;BME280;29823;47.404;8.566;2023-03-03T10:07:54;96720.88;;;4.98;100.00
39243;BME280;29823;47.404;8.566;2023-03-03T10:10:35;96724.34;;;4.99;100.00
39243;BME280;29823;47.404;8.566;2023-03-03T10:13:21;96706.75;;;4.91;100.00
39243;BME280;29823;47.404;8.566;2023-03-03T10:15:59;96724.25;;;4.86;100.00
39243;BME280;29823;47.404;8.566;2023-03-03T10:18:40;96714.44;;;5.07;100.00
39243;BME280;29823;47.404;8.566;2023-03-03T10:21:16;96727.28;;;5.38;100.00
39243;BME280;29823;47.404;8.566;2023-03-03T10:23:54;96716.34;;;5.20;100.00
39243;BME280;29823;47.404;8.566;2023-03-03T10:29:47;96731.03;;;4.74;100.00
39243;BME280;29823;47.404;8.566;2023-03-03T10:32:34;96727.97;;;4.70;100.00
39243;BME280;29823;47.404;8.566;2023-03-03T10:35:40;96720.75;;;5.06;100.00
39243;BME280;29823;47.404;8.566;2023-03-03T10:38:45;96727.16;;;5.18;100.00
39243;BME280;29823;47.404;8.566;2023-03-03T10:41:27;96722.94;;;5.30;100.00
39243;BME280;29823;47.404;8.566;2023-03-03T10:44:22;96727.56;;;5.22;100.00
39243;BME280;29823;47.404;8.566;2023-03-03T10:47:03;96733.00;;;5.41;100.00
39243;BME280;29823;47.404;8.566;2023-03-03T10:49:45;96736.72;;;5.74;100.00
39243;BME280;29823;47.404;8.566;2023-03-03T10:52:30;96738.00;;;5.57;100.00
39243;BME280;29823;47.404;8.566;2023-03-03T10:55:11;96740.78;;;5.43;100.00
39243;BME280;29823;47.404;8.566;2023-03-03T10:57:49;96737.03;;;5.58;100.00
39243;BME280;29823;47.404;8.566;2023-03-03T11:00:23;96731.69;;;5.86;100.00
39243;BME280;29823;47.404;8.566;2023-03-03T11:03:13;96728.25;;;5.58;100.00
39243;BME280;29823;47.404;8.566;2023-03-03T11:05:53;96729.69;;;5.94;100.00
39243;BME280;29823;47.404;8.566;2023-03-03T11:08:26;96732.97;;;6.50;100.00
39243;BME280;29823;47.404;8.566;2023-03-03T11:11:04;96734.38;;;6.52;100.00
39243;BME280;29823;47.404;8.566;2023-03-03T11:13:40;96729.00;;;6.26;100.00
39243;BME280;29823;47.404;8.566;2023-03-03T11:16:23;96734.53;;;6.31;100.00
39243;BME280;29823;47.404;8.566;2023-03-03T11:19:04;96721.03;;;5.79;100.00
39243;BME280;29823;47.404;8.566;2023-03-03T11:21:40;96717.53;;;6.19;100.00
39243;BME280;29823;47.404;8.566;2023-03-03T11:24:30;96723.19;;;6.63;100.00
39243;BME280;29823;47.404;8.566;2023-03-03T11:27:18;96718.09;;;6.02;100.00
39243;BME280;29823;47.404;8.566;2023-03-03T11:30:02;96716.38;;;6.28;100.00
39243;BME280;29823;47.404;8.566;2023-03-03T11:32:40;96708.53;;;6.14;100.00
39243;BME280;29823;47.404;8.566;2023-03-03T11:35:21;96712.25;;;6.32;100.00
39243;BME280;29823;47.404;8.566;2023-03-03T11:37:57;96709.09;;;6.69;100.00
39243;BME280;29823;47.404;8.566;2023-03-03T11:40:33;96700.50;;;6.67;100.00
39243;BME280;29823;47.404;8.566;2023-03-03T11:43:09;96697.44;;;6.70;100.00
39243;BME280;29823;47.404;8.566;2023-03-03T11:46:03;96698.88;;;6.92;100.00
39243;BME280;29823;47.404;8.566;2023-03-03T11:48:37;96692.31;;;6.62;100.00
39243;BME280;29823;47.404;8.566;2023-03-03T11:51:13;96686.41;;;6.86;100.00
39243;BME280;29823;47.404;8.566;2023-03-03T11:53:55;96692.75;;;6.72;100.00
39243;BME280;29823;47.404;8.566;2023-03-03T11:56:27;96688.66;;;7.15;100.00
39243;BME280;29823;47.404;8.566;2023-03-03T11:58:59;96689.88;;;7.06;100.00
39243;BME280;29823;47.404;8.566;2023-03-03T12:01:32;96687.63;;;7.36;100.00
39243;BME280;29823;47.404;8.566;2023-03-03T12:04:06;96691.09;;;7.36;100.00
39243;BME280;29823;47.404;8.566;2023-03-03T12:06:49;96663.69;;;7.36;100.00
39243;BME280;29823;47.404;8.566;2023-03-03T12:09:28;96680.69;;;7.09;100.00
39243;BME280;29823;47.404;8.566;2023-03-03T12:12:05;96675.19;;;7.17;100.00
39243;BME280;29823;47.404;8.566;2023-03-03T12:14:44;96678.84;;;7.03;100.00
39243;BME280;29823;47.404;8.566;2023-03-03T12:17:26;96674.47;;;7.54;100.00
39243;BME280;29823;47.404;8.566;2023-03-03T12:20:02;96669.03;;;6.90;100.00
39243;BME280;29823;47.404;8.566;2023-03-03T12:22:41;96661.88;;;7.93;100.00
39243;BME280;29823;47.404;8.566;2023-03-03T12:25:34;96667.34;;;8.11;99.33
39243;BME280;29823;47.404;8.566;2023-03-03T12:28:04;96666.97;;;8.45;98.60
39243;BME280;29823;47.404;8.566;2023-03-03T12:31:01;96660.06;;;9.60;87.60
39243;BME280;29823;47.404;8.566;2023-03-03T12:33:46;96658.72;;;10.53;80.42
39243;BME280;29823;47.404;8.566;2023-03-03T12:36:28;96654.47;;;11.16;70.04
39243;BME280;29823;47.404;8.566;2023-03-03T12:39:06;96647.34;;;10.98;69.38
39243;BME280;29823;47.404;8.566;2023-03-03T12:41:48;96647.66;;;9.05;81.93
39243;BME280;29823;47.404;8.566;2023-03-03T12:44:23;96645.56;;;8.58;90.47
39243;BME280;29823;47.404;8.566;2023-03-03T12:46:58;96650.03;;;8.89;91.31
39243;BME280;29823;47.404;8.566;2023-03-03T12:49:34;96648.56;;;8.93;88.04
39243;BME280;29823;47.404;8.566;2023-03-03T12:52:20;96638.50;;;9.19;85.01
39243;BME280;29823;47.404;8.566;2023-03-03T12:54:59;96643.75;;;8.52;88.35
39243;BME280;29823;47.404;8.566;2023-03-03T12:57:35;96635.88;;;10.27;78.09
39243;BME280;29823;47.404;8.566;2023-03-03T13:00:21;96626.25;;;10.38;76.11
39243;BME280;29823;47.404;8.566;2023-03-03T13:02:58;96630.25;;;10.58;73.29
39243;BME280;29823;47.404;8.566;2023-03-03T13:05:32;96625.28;;;10.62;75.99
39243;BME280;29823;47.404;8.566;2023-03-03T13:08:16;96628.63;;;10.57;74.70
39243;BME280;29823;47.404;8.566;2023-03-03T13:10:50;96622.16;;;10.35;74.22
39243;BME280;29823;47.404;8.566;2023-03-03T13:13:26;96628.44;;;9.39;81.33
39243;BME280;29823;47.404;8.566;2023-03-03T13:16:01;96619.38;;;9.04;87.85
39243;BME280;29823;47.404;8.566;2023-03-03T13:18:43;96617.50;;;9.65;84.30
39243;BME280;29823;47.404;8.566;2023-03-03T13:21:19;96615.88;;;8.79;87.87
39243;BME280;29823;47.404;8.566;2023-03-03T13:23:52;96620.59;;;8.53;91.65
39243;BME280;29823;47.404;8.566;2023-03-03T13:26:26;96617.91;;;8.28;93.95
39243;BME280;29823;47.404;8.566;2023-03-03T13:29:03;96607.25;;;7.84;98.83
39243;BME280;29823;47.404;8.566;2023-03-03T13:31:38;96618.84;;;8.40;97.01
39243;BME280;29823;47.404;8.566;2023-03-03T13:34:12;96619.41;;;8.73;93.41
39243;BME280;29823;47.404;8.566;2023-03-03T13:36:49;96617.81;;;8.41;96.61
39243;BME280;29823;47.404;8.566;2023-03-03T13:39:21;96609.41;;;8.93;93.35